Storm Events Database

Event Details

Event Hail
Magnitude 0.88 in.
State NEW YORK
County/Area SCHUYLER
WFO BGM
Report Source COOP Observer
NCDC Data Source CSV
Begin Date 2012-09-06 15:15:00.0 EST-5
Begin Location 0N MECKLENBURG
Begin Lat/Lon 42.47/-76.7
End Date 2012-09-06 15:15:00.0 EST-5
Deaths Direct/Indirect 0/0 (fatality details below, when available...)
Injuries Direct/Indirect 0/0
Property Damage 0.00K
Crop Damage 0.00K
Episode Narrative Showers and thunderstorms developed along, and ahead of a cold front that pushed through central New York during the afternoon. Several storms reached severe levels, producing isolated damaging wind reports and many reports of large hail. Some of the hail was as large as golf balls.
Event Narrative


     ‚Äč



All events for this episode:

Location County/Zone St. Date Time T.Z. Type Mag Dth Inj PrD CrD
Totals: 0 0 84.00K 0.00K
TRUMANSBURG TOMPKINS CO. NY 09/06/2012 14:41 EST-5 Hail 1.00 in. 0 0 0.00K 0.00K
MILFORD OTSEGO CO. NY 09/06/2012 14:44 EST-5 Hail 0.75 in. 0 0 0.00K 0.00K
ITHACA TOMPKINS CO. NY 09/06/2012 14:55 EST-5 Hail 1.00 in. 0 0 0.00K 0.00K
ITHACA TOMPKINS CO. NY 09/06/2012 15:05 EST-5 Hail 0.75 in. 0 0 0.00K 0.00K
HORSEHEADS CHEMUNG CO. NY 09/06/2012 15:10 EST-5 Hail 1.00 in. 0 0 0.00K 0.00K
ELMIRA CHEMUNG CO. NY 09/06/2012 15:12 EST-5 Thunderstorm Wind 50 kts. EG 0 0 1.00K 0.00K
TOMPKINS CORNERS CHEMUNG CO. NY 09/06/2012 15:13 EST-5 Hail 1.00 in. 0 0 0.00K 0.00K
MECKLENBURG SCHUYLER CO. NY 09/06/2012 15:15 EST-5 Hail 0.88 in. 0 0 0.00K 0.00K
HORSEHEADS CHEMUNG CO. NY 09/06/2012 15:25 EST-5 Hail 1.00 in. 0 0 0.00K 0.00K
HORSEHEADS CHEMUNG CO. NY 09/06/2012 15:25 EST-5 Thunderstorm Wind 50 kts. EG 0 0 2.00K 0.00K
HORSEHEADS CHEMUNG CO. NY 09/06/2012 15:28 EST-5 Hail 1.50 in. 0 0 15.00K 0.00K
HORSEHEADS CHEMUNG CO. NY 09/06/2012 15:30 EST-5 Hail 1.25 in. 0 0 1.00K 0.00K
HORSEHEADS CHEMUNG CO. NY 09/06/2012 15:35 EST-5 Hail 1.75 in. 0 0 20.00K 0.00K
CANDOR TIOGA CO. NY 09/06/2012 15:45 EST-5 Thunderstorm Wind 50 kts. EG 0 0 1.00K 0.00K
ELMIRA CHEMUNG CO. NY 09/06/2012 15:50 EST-5 Hail 1.75 in. 0 0 10.00K 0.00K
OWEGO TIOGA CO. NY 09/06/2012 15:55 EST-5 Hail 1.50 in. 0 0 0.00K 0.00K
LITCHFIELD TIOGA CO. NY 09/06/2012 16:00 EST-5 Hail 0.75 in. 0 0 0.00K 0.00K
CHEMUNG CHEMUNG CO. NY 09/06/2012 16:05 EST-5 Hail 1.00 in. 0 0 0.00K 0.00K
APALACHIN TIOGA CO. NY 09/06/2012 16:12 EST-5 Thunderstorm Wind 50 kts. EG 0 0 0.00K 0.00K
APALACHIN TIOGA CO. NY 09/06/2012 16:15 EST-5 Thunderstorm Wind 50 kts. EG 0 0 1.00K 0.00K
LITCHFIELD TIOGA CO. NY 09/06/2012 16:17 EST-5 Hail 0.75 in. 0 0 0.00K 0.00K
LITCHFIELD TIOGA CO. NY 09/06/2012 16:20 EST-5 Hail 1.75 in. 0 0 10.00K 0.00K
VESTAL BROOME CO. NY 09/06/2012 16:22 EST-5 Thunderstorm Wind 50 kts. EG 0 0 3.00K 0.00K
EDGEWATER CAYUGA CO. NY 09/06/2012 16:36 EST-5 Hail 1.00 in. 0 0 0.00K 0.00K
VESTAL BROOME CO. NY 09/06/2012 17:00 EST-5 Hail 0.88 in. 0 0 0.00K 0.00K
COLLIERSVILLE OTSEGO CO. NY 09/06/2012 17:53 EST-5 Hail 0.75 in. 0 0 0.00K 0.00K
TRUMANSBURG TOMPKINS CO. NY 09/06/2012 18:09 EST-5 Hail 1.25 in. 0 0 0.00K 0.00K
TRUMANSBURG TOMPKINS CO. NY 09/06/2012 18:10 EST-5 Hail 1.00 in. 0 0 0.00K 0.00K
TRUMANSBURG TOMPKINS CO. NY 09/06/2012 18:15 EST-5 Hail 1.75 in. 0 0 10.00K 0.00K
MC KINNEYS PT TOMPKINS CO. NY 09/06/2012 18:30 EST-5 Hail 1.75 in. 0 0 10.00K 0.00K
LUDLOWVILLE TOMPKINS CO. NY 09/06/2012 18:40 EST-5 Hail 1.00 in. 0 0 0.00K 0.00K
MC KINNEYS PT TOMPKINS CO. NY 09/06/2012 18:40 EST-5 Hail 1.00 in. 0 0 0.00K 0.00K
OTEGO OTSEGO CO. NY 09/06/2012 18:58 EST-5 Hail 0.75 in. 0 0 0.00K 0.00K
ONEONTA OTSEGO CO. NY 09/06/2012 18:59 EST-5 Hail 1.00 in. 0 0 0.00K 0.00K
Totals: 0 0 84.00K 0.00K